Time;durP1;ratioP1;P1;durP2;ratioP2;P2;SDS_P1;SDS_P2;PMS_P1;PMS_P2;Temp;Humidity;BMP_temperature;BMP_pressure;BME280_temperature;BME280_humidity;BME280_pressure;Samples;Min_cycle;Max_cycle;Signal;HPM_P1;HPM_P2
2022/09/23 00:01:02;;;;;;;15.73;12.07;;;12.80;99.90;;;;;;5043989;28;20044;-67
2022/09/23 00:03:30;;;;;;;17.10;12.70;;;12.80;99.90;;;;;;5034153;28;20029;-68
2022/09/23 00:06:01;;;;;;;16.10;12.07;;;12.80;99.90;;;;;;5043887;28;20021;-68
2022/09/23 00:08:27;;;;;;;17.77;12.57;;;12.80;99.90;;;;;;5039366;28;20092;-68
2022/09/23 00:10:54;;;;;;;17.90;12.63;;;12.70;99.90;;;;;;5038735;28;20034;-68
2022/09/23 00:13:21;;;;;;;15.85;11.85;;;12.70;99.90;;;;;;5034924;28;20033;-68
2022/09/23 00:15:46;;;;;;;17.52;10.82;;;12.70;99.90;;;;;;5047367;28;20120;-68
2022/09/23 00:18:12;;;;;;;23.58;12.57;;;12.70;99.90;;;;;;5037600;28;20108;-68
2022/09/23 00:20:39;;;;;;;20.88;12.88;;;12.60;99.90;;;;;;5045071;28;20014;-67
2022/09/23 00:23:04;;;;;;;19.65;11.82;;;12.60;99.90;;;;;;5048423;28;20033;-68
2022/09/23 00:25:30;;;;;;;18.85;12.75;;;12.60;99.90;;;;;;5038062;28;20390;-68
2022/09/23 00:27:57;;;;;;;18.02;13.13;;;12.60;99.90;;;;;;5050755;28;20064;-68
2022/09/23 00:30:24;;;;;;;26.05;14.02;;;12.60;99.90;;;;;;5042378;28;20469;-68
2022/09/23 00:32:51;;;;;;;18.80;12.75;;;12.50;99.90;;;;;;5042125;28;20363;-68
2022/09/23 00:35:17;;;;;;;15.38;11.95;;;12.50;99.90;;;;;;5046078;28;20022;-68
2022/09/23 00:37:43;;;;;;;14.95;12.27;;;12.50;99.90;;;;;;5051367;28;20082;-68
2022/09/23 00:40:11;;;;;;;16.65;11.05;;;12.50;99.90;;;;;;5040458;28;20049;-68
2022/09/23 00:42:36;;;;;;;13.32;9.88;;;12.50;99.90;;;;;;5044795;28;20032;-68
2022/09/23 00:45:03;;;;;;;16.92;10.98;;;12.40;99.90;;;;;;5033503;28;20030;-68
2022/09/23 00:47:34;;;;;;;18.70;11.25;;;12.40;99.90;;;;;;5034261;28;20048;-68
2022/09/23 00:50:11;;;;;;;19.92;12.63;;;12.30;99.90;;;;;;5049846;28;20027;-68
2022/09/23 00:52:37;;;;;;;19.17;14.82;;;12.30;99.90;;;;;;5021005;28;20084;-68
2022/09/23 00:55:35;;;;;;;20.25;15.70;;;12.30;99.90;;;;;;5040932;28;20025;-67
2022/09/23 00:58:02;;;;;;;23.70;15.93;;;12.30;99.90;;;;;;5031690;28;20030;-68
2022/09/23 01:00:28;;;;;;;19.17;14.45;;;12.30;99.90;;;;;;5041046;28;20079;-68
2022/09/23 01:02:54;;;;;;;20.73;14.50;;;12.20;99.90;;;;;;5041874;28;20029;-67
2022/09/23 01:05:20;;;;;;;20.65;14.27;;;12.30;99.90;;;;;;5047179;28;20028;-68
2022/09/23 01:07:46;;;;;;;22.92;14.85;;;12.20;99.90;;;;;;5050598;28;20075;-67
2022/09/23 01:10:15;;;;;;;19.65;12.65;;;12.20;99.90;;;;;;5039405;28;20032;-67
2022/09/23 01:12:53;;;;;;;19.08;12.55;;;12.20;99.90;;;;;;5040368;28;20041;-68
2022/09/23 01:15:45;;;;;;;15.30;12.05;;;12.20;99.90;;;;;;5031929;28;20064;-68
2022/09/23 01:18:22;;;;;;;17.90;12.23;;;12.10;99.90;;;;;;5029887;28;20050;-68
2022/09/23 01:20:58;;;;;;;18.50;12.55;;;12.10;99.90;;;;;;5031161;28;20033;-68
2022/09/23 01:23:54;;;;;;;18.83;11.50;;;12.20;99.90;;;;;;5031675;28;20021;-68
2022/09/23 01:26:50;;;;;;;18.77;11.45;;;12.10;99.90;;;;;;5031147;28;20032;-67
2022/09/23 01:29:46;;;;;;;16.85;12.05;;;12.10;99.90;;;;;;5028907;28;20025;-68
2022/09/23 01:32:50;;;;;;;17.73;13.05;;;12.10;99.90;;;;;;5033018;28;20025;-67
2022/09/23 01:35:51;;;;;;;16.45;13.13;;;12.10;99.90;;;;;;5033271;28;20088;-67
2022/09/23 01:38:25;;;;;;;20.73;12.68;;;12.10;99.90;;;;;;5027777;28;20059;-68
2022/09/23 01:41:03;;;;;;;19.65;13.45;;;12.00;99.90;;;;;;5034219;28;20033;-68
2022/09/23 01:44:15;;;;;;;20.27;12.07;;;12.00;99.90;;;;;;5033569;28;20028;-68
2022/09/23 01:47:07;;;;;;;16.63;11.80;;;12.00;99.90;;;;;;5029774;28;20521;-68
2022/09/23 01:49:47;;;;;;;15.43;11.60;;;11.90;99.90;;;;;;5031277;28;20440;-68
2022/09/23 01:52:39;;;;;;;18.20;11.18;;;12.00;99.90;;;;;;5031927;28;20042;-68
2022/09/23 01:55:19;;;;;;;13.85;10.20;;;12.00;99.90;;;;;;5032657;28;20021;-67
2022/09/23 01:58:14;;;;;;;18.50;11.65;;;11.90;99.90;;;;;;5032142;28;20075;-67
2022/09/23 02:00:48;;;;;;;18.80;10.77;;;11.90;99.90;;;;;;5027509;28;20498;-68
2022/09/23 02:03:18;;;;;;;17.75;11.27;;;11.90;99.90;;;;;;5032947;28;20014;-67
2022/09/23 02:05:49;;;;;;;14.05;11.23;;;11.80;99.90;;;;;;5032289;28;20108;-67
2022/09/23 02:08:33;;;;;;;13.73;11.05;;;11.90;99.90;;;;;;5031170;28;20101;-68
2022/09/23 02:11:07;;;;;;;15.05;9.80;;;11.90;99.90;;;;;;5030601;28;20044;-67
2022/09/23 02:13:42;;;;;;;18.67;11.27;;;11.80;99.90;;;;;;5032812;28;20413;-67
2022/09/23 02:16:27;;;;;;;12.63;10.23;;;11.80;99.90;;;;;;5033415;28;20029;-67
2022/09/23 02:19:24;;;;;;;18.42;10.15;;;11.80;99.90;;;;;;5032662;28;20037;-68
2022/09/23 02:21:55;;;;;;;19.38;10.57;;;11.80;99.90;;;;;;5032605;28;20366;-68
2022/09/23 02:24:29;;;;;;;14.75;10.45;;;11.80;99.90;;;;;;5030002;28;20392;-67
2022/09/23 02:27:30;;;;;;;17.13;9.98;;;11.80;99.90;;;;;;5032921;28;20025;-68
2022/09/23 02:30:15;;;;;;;14.55;9.93;;;11.80;99.90;;;;;;5028885;28;20040;-68
2022/09/23 02:33:00;;;;;;;12.63;9.50;;;11.70;99.90;;;;;;5031006;28;20038;-67
2022/09/23 02:35:36;;;;;;;15.57;10.35;;;11.70;99.90;;;;;;5031415;28;20014;-67
2022/09/23 02:38:36;;;;;;;15.98;9.85;;;11.70;99.90;;;;;;5030239;28;20492;-68
2022/09/23 02:41:23;;;;;;;15.50;10.57;;;11.70;99.90;;;;;;5032843;28;20091;-68
2022/09/23 02:43:56;;;;;;;17.35;9.90;;;11.60;99.90;;;;;;5031535;28;20034;-68
2022/09/23 02:46:22;;;;;;;19.58;10.90;;;11.60;99.90;;;;;;5029815;28;20017;-68
2022/09/23 02:49:03;;;;;;;13.95;9.43;;;11.60;99.90;;;;;;5033017;28;20013;-68
2022/09/23 02:51:33;;;;;;;16.38;9.80;;;11.50;99.90;;;;;;5029659;28;20041;-67
2022/09/23 02:54:02;;;;;;;15.48;11.00;;;11.50;99.90;;;;;;5029573;28;20021;-67
2022/09/23 02:56:28;;;;;;;16.48;9.77;;;11.50;99.90;;;;;;5031739;28;20017;-68
2022/09/23 02:58:54;;;;;;;12.82;9.98;;;11.50;99.90;;;;;;5031661;28;20521;-68
2022/09/23 03:01:51;;;;;;;16.15;10.82;;;11.50;99.90;;;;;;5032195;28;20386;-67
2022/09/23 03:04:24;;;;;;;15.63;9.80;;;11.50;99.90;;;;;;5029611;28;20017;-68
2022/09/23 03:07:31;;;;;;;11.50;9.20;;;11.50;99.90;;;;;;5032388;28;20091;-67
2022/09/23 03:10:20;;;;;;;14.48;10.15;;;11.40;99.90;;;;;;5029966;28;20084;-68
2022/09/23 03:12:51;;;;;;;19.23;9.90;;;11.40;99.90;;;;;;5031079;28;20033;-68
2022/09/23 03:15:26;;;;;;;16.08;9.98;;;11.40;99.90;;;;;;5013086;28;20478;-67
2022/09/23 03:18:02;;;;;;;14.48;9.35;;;11.40;99.90;;;;;;5013327;28;20199;-67
2022/09/23 03:20:34;;;;;;;12.82;10.43;;;11.40;99.90;;;;;;5023556;28;20056;-67
2022/09/23 03:23:05;;;;;;;11.15;9.13;;;11.40;99.90;;;;;;5030590;28;20026;-67
2022/09/23 03:25:35;;;;;;;15.68;8.60;;;11.40;99.90;;;;;;5032327;28;20040;-67
2022/09/23 03:28:02;;;;;;;15.95;10.00;;;11.40;99.90;;;;;;5032183;28;20160;-67
2022/09/23 03:30:31;;;;;;;12.27;9.20;;;11.30;99.90;;;;;;5031599;28;20025;-68
2022/09/23 03:32:59;;;;;;;16.60;9.43;;;11.30;99.90;;;;;;5032177;28;20087;-68
2022/09/23 03:35:28;;;;;;;16.17;9.32;;;11.20;99.90;;;;;;5032446;28;20466;-68
2022/09/23 03:38:02;;;;;;;15.57;11.27;;;11.20;99.90;;;;;;5031764;28;20026;-68
2022/09/23 03:40:34;;;;;;;13.63;10.70;;;11.20;99.90;;;;;;5032075;28;20040;-67
2022/09/23 03:43:01;;;;;;;16.10;9.57;;;11.30;99.90;;;;;;5032653;28;20548;-68
2022/09/23 03:45:31;;;;;;;14.98;9.80;;;11.30;99.90;;;;;;5032105;28;20029;-68
2022/09/23 03:47:57;;;;;;;13.30;9.43;;;11.30;99.90;;;;;;5032416;28;20025;-68
2022/09/23 03:50:23;;;;;;;13.88;9.85;;;11.20;99.90;;;;;;5032339;28;20113;-68
2022/09/23 03:52:49;;;;;;;15.85;9.07;;;11.30;99.90;;;;;;5032111;28;20073;-67
2022/09/23 03:55:16;;;;;;;13.48;8.85;;;11.30;99.90;;;;;;5035736;28;20021;-68
2022/09/23 03:57:42;;;;;;;13.15;8.57;;;11.20;99.90;;;;;;5035428;28;20037;-68
2022/09/23 04:00:08;;;;;;;15.10;8.55;;;11.20;99.90;;;;;;5035377;28;20532;-68
2022/09/23 04:02:34;;;;;;;12.98;7.90;;;11.20;99.90;;;;;;5035743;28;20029;-68
2022/09/23 04:05:00;;;;;;;13.77;10.13;;;11.20;99.90;;;;;;5035171;28;20496;-68
2022/09/23 04:07:25;;;;;;;14.20;8.80;;;11.20;99.90;;;;;;5035791;28;20029;-68
2022/09/23 04:09:52;;;;;;;13.45;9.65;;;11.20;99.90;;;;;;5036130;28;20389;-68
2022/09/23 04:12:18;;;;;;;10.48;9.38;;;11.20;99.90;;;;;;5036032;28;20049;-68
2022/09/23 04:14:43;;;;;;;12.52;9.52;;;11.20;99.90;;;;;;5034645;28;20030;-68
2022/09/23 04:17:11;;;;;;;16.33;9.25;;;11.10;99.90;;;;;;5035524;28;20029;-68
2022/09/23 04:19:36;;;;;;;12.15;8.98;;;11.10;99.90;;;;;;5035502;28;20022;-68
2022/09/23 04:22:03;;;;;;;13.32;8.90;;;11.10;99.90;;;;;;5035894;28;20029;-68
2022/09/23 04:24:28;;;;;;;14.63;8.82;;;11.10;99.90;;;;;;5036063;28;20079;-68
2022/09/23 04:26:55;;;;;;;8.90;8.00;;;11.10;99.90;;;;;;5035388;28;20022;-69
2022/09/23 04:29:22;;;;;;;8.35;7.15;;;11.10;99.90;;;;;;5035725;28;20052;-68
2022/09/23 04:31:49;;;;;;;11.27;8.57;;;11.10;99.90;;;;;;5035354;28;20037;-68
2022/09/23 04:34:16;;;;;;;9.10;8.05;;;11.10;99.90;;;;;;5035667;28;20508;-68
2022/09/23 04:36:46;;;;;;;10.75;8.63;;;11.10;99.90;;;;;;5035474;28;20548;-68
2022/09/23 04:39:13;;;;;;;11.07;8.45;;;11.10;99.90;;;;;;5035362;28;20417;-68
2022/09/23 04:41:39;;;;;;;8.48;7.65;;;11.10;99.90;;;;;;5035315;28;20044;-68
2022/09/23 04:44:05;;;;;;;12.13;8.60;;;11.10;99.90;;;;;;5034996;28;20024;-68
2022/09/23 04:46:33;;;;;;;9.27;8.07;;;11.10;99.90;;;;;;5015859;28;20490;-68
2022/09/23 04:48:58;;;;;;;12.82;8.77;;;11.10;99.90;;;;;;5015382;28;20014;-68
2022/09/23 04:51:25;;;;;;;10.90;7.47;;;11.10;99.90;;;;;;5015119;28;20445;-68
2022/09/23 04:53:52;;;;;;;11.50;7.93;;;11.10;99.90;;;;;;5015526;28;20386;-68
2022/09/23 04:56:24;;;;;;;9.25;7.28;;;11.00;99.90;;;;;;5015955;28;20034;-68
2022/09/23 04:58:50;;;;;;;11.43;7.82;;;11.00;99.90;;;;;;5031414;28;20555;-68
2022/09/23 05:01:26;;;;;;;10.07;7.20;;;11.00;99.90;;;;;;5034194;28;20025;-68
2022/09/23 05:03:54;;;;;;;9.18;7.57;;;11.00;99.90;;;;;;5033758;28;20026;-68
2022/09/23 05:06:20;;;;;;;14.93;7.68;;;11.10;99.90;;;;;;5033723;28;20036;-68
2022/09/23 05:08:51;;;;;;;9.77;6.55;;;11.10;99.90;;;;;;5035090;28;20030;-68
2022/09/23 05:11:17;;;;;;;10.90;7.10;;;11.10;99.90;;;;;;5035197;28;20087;-68
2022/09/23 05:13:47;;;;;;;9.98;7.28;;;11.00;99.90;;;;;;5034586;28;20084;-68
2022/09/23 05:16:13;;;;;;;6.93;6.25;;;11.00;99.90;;;;;;5034775;28;20033;-68
2022/09/23 05:18:41;;;;;;;7.93;6.70;;;11.00;99.90;;;;;;5034749;28;20018;-68
2022/09/23 05:21:09;;;;;;;10.38;6.53;;;11.00;99.90;;;;;;5034401;28;20037;-68
2022/09/23 05:23:35;;;;;;;12.70;7.72;;;11.00;99.90;;;;;;5033313;28;20104;-68
2022/09/23 05:26:05;;;;;;;9.82;7.28;;;10.90;99.90;;;;;;5033616;28;20033;-68
2022/09/23 05:28:31;;;;;;;11.75;7.80;;;11.00;99.90;;;;;;5034315;28;20025;-68
2022/09/23 05:31:05;;;;;;;8.88;6.45;;;11.00;99.90;;;;;;5034482;28;20488;-68
2022/09/23 05:33:35;;;;;;;12.98;8.13;;;11.00;99.90;;;;;;5034847;28;20386;-69
2022/09/23 05:36:02;;;;;;;9.70;7.28;;;11.00;99.90;;;;;;5033084;28;20085;-68
2022/09/23 05:38:28;;;;;;;8.15;6.95;;;11.00;99.90;;;;;;5034253;28;20057;-68
2022/09/23 05:41:02;;;;;;;10.98;7.32;;;11.00;99.90;;;;;;5034659;28;20482;-68
2022/09/23 05:43:28;;;;;;;9.88;6.70;;;11.10;99.90;;;;;;5043750;28;20031;-69
2022/09/23 05:46:01;;;;;;;16.73;7.03;;;11.10;99.90;;;;;;5034243;28;20109;-69
2022/09/23 05:48:28;;;;;;;;;;;11.10;99.90;;;;;;5034750;28;20030;-69
2022/09/23 05:50:53;;;;;;;17.92;7.80;;;11.10;99.90;;;;;;5033965;28;19960;-68
2022/09/23 05:53:19;;;;;;;14.80;7.47;;;11.10;99.90;;;;;;5033743;28;20096;-68
2022/09/23 05:55:45;;;;;;;11.15;7.20;;;11.20;99.90;;;;;;5033425;28;20025;-68
2022/09/23 05:58:11;;;;;;;10.40;6.50;;;11.10;99.90;;;;;;5032130;28;20585;-68
2022/09/23 06:00:42;;;;;;;8.35;6.43;;;11.10;99.90;;;;;;5032568;28;20053;-68
2022/09/23 06:03:15;;;;;;;10.15;6.03;;;11.10;99.90;;;;;;5034236;28;20026;-68
2022/09/23 06:05:41;;;;;;;14.40;6.97;;;11.10;99.90;;;;;;5033553;28;20350;-68
2022/09/23 06:08:08;;;;;;;10.20;6.55;;;11.10;99.90;;;;;;5033281;28;20117;-67
2022/09/23 06:10:42;;;;;;;11.23;6.80;;;11.10;99.90;;;;;;5030127;28;20037;-67
2022/09/23 06:13:08;;;;;;;8.93;7.00;;;11.20;99.90;;;;;;5023045;28;20029;-67
2022/09/23 06:15:35;;;;;;;9.27;6.20;;;11.20;99.90;;;;;;5032575;28;20029;-67
2022/09/23 06:18:01;;;;;;;11.68;6.70;;;11.20;99.90;;;;;;5033334;28;20489;-67
2022/09/23 06:20:27;;;;;;;11.98;7.22;;;11.30;99.90;;;;;;5033237;28;20025;-67
2022/09/23 06:22:53;;;;;;;9.98;6.78;;;11.20;99.90;;;;;;5032511;28;20032;-67
2022/09/23 06:25:20;;;;;;;10.93;7.13;;;11.30;99.90;;;;;;5033291;28;20025;-68
2022/09/23 06:27:55;;;;;;;7.57;5.95;;;11.30;99.90;;;;;;5032802;28;20474;-67
2022/09/23 06:30:22;;;;;;;8.70;6.47;;;11.30;99.90;;;;;;5030680;28;20026;-67
2022/09/23 06:32:52;;;;;;;10.93;6.75;;;11.40;99.90;;;;;;5033229;28;20036;-67
2022/09/23 06:35:18;;;;;;;16.50;7.55;;;11.40;99.90;;;;;;5029270;28;20030;-67
2022/09/23 06:37:45;;;;;;;13.32;6.22;;;11.40;99.90;;;;;;5032729;28;20096;-67
2022/09/23 06:40:13;;;;;;;13.93;7.93;;;11.50;99.90;;;;;;5032423;28;20036;-67
2022/09/23 06:42:39;;;;;;;14.93;6.85;;;11.40;99.90;;;;;;5032857;28;20395;-67
2022/09/23 06:45:05;;;;;;;13.65;7.05;;;11.40;99.90;;;;;;5032281;28;20139;-67
2022/09/23 06:47:31;;;;;;;11.80;6.50;;;11.40;99.90;;;;;;5032878;28;20026;-66
2022/09/23 06:49:56;;;;;;;10.27;7.15;;;11.50;99.90;;;;;;5032814;28;20476;-67
2022/09/23 06:52:22;;;;;;;14.07;7.20;;;11.60;99.90;;;;;;5030074;28;20040;-67
2022/09/23 06:54:47;;;;;;;11.02;6.10;;;11.50;99.90;;;;;;5013093;28;20395;-67
2022/09/23 06:57:13;;;;;;;14.95;6.60;;;11.60;99.90;;;;;;5012326;28;20050;-67
2022/09/23 06:59:40;;;;;;;9.50;6.18;;;11.50;99.90;;;;;;5024410;28;20099;-67
2022/09/23 07:02:08;;;;;;;11.48;6.28;;;11.60;99.90;;;;;;5031429;28;20523;-66
2022/09/23 07:04:33;;;;;;;10.82;7.07;;;11.70;99.90;;;;;;5032218;28;20068;-67
2022/09/23 07:06:59;;;;;;;8.77;6.13;;;11.70;99.90;;;;;;5032124;28;20432;-68
2022/09/23 07:09:25;;;;;;;8.23;6.45;;;11.70;99.90;;;;;;5032382;28;20024;-68
2022/09/23 07:11:50;;;;;;;9.65;5.93;;;11.70;99.90;;;;;;5031216;28;20037;-67
2022/09/23 07:14:16;;;;;;;11.75;6.35;;;11.70;99.90;;;;;;5031718;28;20049;-67
2022/09/23 07:16:42;;;;;;;8.93;6.28;;;11.80;99.90;;;;;;5031337;28;20026;-67
2022/09/23 07:19:07;;;;;;;18.27;7.07;;;11.80;99.90;;;;;;5032303;28;20029;-68
2022/09/23 07:21:33;;;;;;;12.65;7.30;;;11.80;99.90;;;;;;5023517;28;20392;-68
2022/09/23 07:23:58;;;;;;;13.25;7.97;;;11.80;99.90;;;;;;5027010;28;20493;-68
2022/09/23 07:26:25;;;;;;;9.18;6.65;;;11.90;99.90;;;;;;5032150;28;20036;-68
2022/09/23 07:28:55;;;;;;;9.80;7.10;;;11.90;99.90;;;;;;5031065;28;20021;-68
2022/09/23 07:31:22;;;;;;;11.20;6.82;;;12.00;99.90;;;;;;5031317;28;20057;-68
2022/09/23 07:33:48;;;;;;;10.00;5.75;;;12.10;99.90;;;;;;5032014;28;20370;-68
2022/09/23 07:36:18;;;;;;;6.13;4.75;;;12.20;99.90;;;;;;5031251;28;20348;-74
2022/09/23 07:38:45;;;;;;;12.63;6.78;;;12.20;99.90;;;;;;5030787;28;20486;-74
2022/09/23 07:41:12;;;;;;;7.22;4.70;;;12.40;99.90;;;;;;5024976;28;20018;-68
2022/09/23 07:43:39;;;;;;;7.05;4.93;;;12.50;99.90;;;;;;5031663;28;20021;-68
2022/09/23 07:46:09;;;;;;;7.15;4.90;;;12.50;99.90;;;;;;5033005;28;20022;-68
2022/09/23 07:48:36;;;;;;;12.20;5.45;;;12.60;99.90;;;;;;5041708;28;20037;-68
2022/09/23 07:51:16;;;;;;;9.75;5.13;;;12.70;99.90;;;;;;5031499;28;20120;-68
2022/09/23 07:53:42;;;;;;;7.82;5.18;;;12.80;99.90;;;;;;5031500;28;20385;-68
2022/09/23 07:56:07;;;;;;;7.53;4.72;;;12.80;99.90;;;;;;5032664;28;20025;-69
2022/09/23 07:58:34;;;;;;;6.88;4.53;;;12.90;99.90;;;;;;5032078;28;20466;-68
2022/09/23 08:01:04;;;;;;;9.77;4.65;;;13.00;99.90;;;;;;5031707;28;20108;-68
2022/09/23 08:03:30;;;;;;;24.85;5.35;;;13.10;99.90;;;;;;5030579;28;20025;-68
2022/09/23 08:06:22;;;;;;;11.18;4.55;;;13.20;99.90;;;;;;5034315;28;20025;-69
2022/09/23 08:08:48;;;;;;;8.88;4.72;;;13.30;99.90;;;;;;5051980;28;20161;-68
2022/09/23 08:11:13;;;;;;;10.93;4.45;;;13.40;99.90;;;;;;5051135;28;20021;-69
2022/09/23 08:13:40;;;;;;;10.35;4.47;;;13.40;99.90;;;;;;5052090;28;20123;-68
2022/09/23 08:16:06;;;;;;;7.40;4.25;;;13.50;99.90;;;;;;5033084;28;20030;-70
2022/09/23 08:18:32;;;;;;;11.75;5.40;;;13.60;99.90;;;;;;5029787;28;20025;-68
2022/09/23 08:20:58;;;;;;;8.90;5.03;;;13.70;99.90;;;;;;5032117;28;20026;-69
2022/09/23 08:23:24;;;;;;;12.00;5.40;;;13.80;99.90;;;;;;5032210;28;20024;-69
2022/09/23 08:26:00;;;;;;;10.18;5.00;;;13.80;99.90;;;;;;5032722;28;20026;-69
2022/09/23 08:28:27;;;;;;;20.55;5.47;;;14.00;99.90;;;;;;5031937;28;20054;-69
2022/09/23 08:30:53;;;;;;;10.55;4.57;;;14.00;99.90;;;;;;5038443;28;20100;-69
2022/09/23 08:33:18;;;;;;;12.60;4.57;;;14.00;99.90;;;;;;5031990;28;20080;-69
2022/09/23 08:35:44;;;;;;;9.85;4.35;;;14.10;99.90;;;;;;5031661;28;20387;-69
2022/09/23 08:38:10;;;;;;;18.35;5.18;;;14.10;99.90;;;;;;5031526;28;20037;-69
2022/09/23 08:40:40;;;;;;;10.80;4.72;;;14.20;99.90;;;;;;5035359;28;20052;-69
2022/09/23 08:43:21;;;;;;;8.27;4.78;;;14.30;99.90;;;;;;5035289;28;20032;-69
2022/09/23 08:45:49;;;;;;;18.85;4.90;;;14.30;99.90;;;;;;5030546;28;20030;-69
2022/09/23 08:48:23;;;;;;;7.40;4.45;;;14.40;99.90;;;;;;5034980;28;20021;-69
2022/09/23 08:50:57;;;;;;;7.50;4.15;;;14.50;99.90;;;;;;5035255;28;20033;-69
2022/09/23 08:53:26;;;;;;;6.30;4.03;;;14.50;99.90;;;;;;5035312;28;20462;-70
2022/09/23 08:55:54;;;;;;;7.30;4.07;;;14.60;99.90;;;;;;5035392;28;20018;-69
2022/09/23 08:58:34;;;;;;;8.07;4.55;;;14.60;99.90;;;;;;5034249;28;20033;-70
2022/09/23 09:01:18;;;;;;;10.02;4.45;;;14.70;99.90;;;;;;5035155;28;20037;-69
2022/09/23 09:03:50;;;;;;;9.65;4.40;;;14.70;99.90;;;;;;5034369;28;20467;-69
2022/09/23 09:06:19;;;;;;;;;;;14.80;99.90;;;;;;5033801;28;20032;-69
2022/09/23 09:08:51;;;;;;;12.27;3.70;;;14.90;99.90;;;;;;5035318;28;19939;-69
2022/09/23 09:11:18;;;;;;;6.32;3.58;;;14.90;99.90;;;;;;5034412;28;20064;-69
2022/09/23 09:13:58;;;;;;;11.05;4.70;;;14.90;99.90;;;;;;5034570;28;20034;-69
2022/09/23 09:17:07;;;;;;;8.73;5.00;;;14.90;99.90;;;;;;5051932;28;20048;-69
2022/09/23 09:19:52;;;;;;;8.35;5.00;;;14.90;99.90;;;;;;5053359;28;20048;-70
2022/09/23 09:22:36;;;;;;;8.63;5.00;;;15.00;99.90;;;;;;5054841;28;20100;-69
2022/09/23 09:25:17;;;;;;;13.57;6.25;;;15.10;99.90;;;;;;5044454;28;20025;-69
2022/09/23 09:27:44;;;;;;;10.95;5.75;;;15.10;99.90;;;;;;5033085;28;20021;-69
2022/09/23 09:30:13;;;;;;;11.38;5.25;;;15.30;99.90;;;;;;5034429;28;20032;-70
2022/09/23 09:32:53;;;;;;;7.43;5.03;;;15.40;99.90;;;;;;5001312;28;20116;-70
2022/09/23 09:35:39;;;;;;;8.65;4.97;;;15.50;99.90;;;;;;5033374;28;20104;-70
2022/09/23 09:38:06;;;;;;;10.50;4.03;;;15.50;99.90;;;;;;5039046;28;20037;-70
2022/09/23 09:40:33;;;;;;;9.30;4.55;;;15.60;99.90;;;;;;5045285;28;20060;-70
2022/09/23 09:43:03;;;;;;;8.25;5.00;;;15.70;99.90;;;;;;5047675;28;20560;-70
2022/09/23 09:46:09;;;;;;;12.25;4.53;;;15.70;99.90;;;;;;5043407;28;20025;-70
2022/09/23 09:48:52;;;;;;;8.95;4.47;;;16.00;99.90;;;;;;5036632;28;20490;-70
2022/09/23 09:51:23;;;;;;;11.85;6.10;;;16.30;99.90;;;;;;5044274;28;20028;-70
2022/09/23 09:53:51;;;;;;;10.23;5.55;;;16.50;99.90;;;;;;5044579;28;20389;-70
2022/09/23 09:56:21;;;;;;;22.35;5.30;;;16.70;99.90;;;;;;5036441;28;20030;-70
2022/09/23 09:58:52;;;;;;;7.05;3.97;;;16.80;99.90;;;;;;5020635;28;20024;-70
2022/09/23 10:01:23;;;;;;;20.85;5.20;;;17.00;99.90;;;;;;5043153;28;20049;-70
2022/09/23 10:03:54;;;;;;;9.70;4.30;;;17.10;99.90;;;;;;5045221;28;20104;-70
2022/09/23 10:06:26;;;;;;;7.18;4.75;;;16.90;99.90;;;;;;5036774;28;20029;-70
2022/09/23 10:09:00;;;;;;;9.27;4.60;;;17.00;99.90;;;;;;5048057;28;20168;-70
2022/09/23 10:11:30;;;;;;;7.13;4.10;;;17.20;99.90;;;;;;5042575;28;20095;-70
2022/09/23 10:14:01;;;;;;;12.15;4.28;;;17.30;99.90;;;;;;5050559;28;20036;-70
2022/09/23 10:16:30;;;;;;;10.48;4.10;;;17.40;99.90;;;;;;5035649;28;20025;-70
2022/09/23 10:18:58;;;;;;;9.80;4.72;;;17.50;99.90;;;;;;5047413;28;20162;-70
2022/09/23 10:21:24;;;;;;;6.93;4.35;;;17.50;99.90;;;;;;5042644;28;20026;-69
2022/09/23 10:23:53;;;;;;;14.48;5.20;;;17.60;99.90;;;;;;5045573;28;20381;-71
2022/09/23 10:26:35;;;;;;;12.75;4.90;;;17.70;99.90;;;;;;5035964;28;20152;-72
2022/09/23 10:29:03;;;;;;;9.27;5.10;;;17.80;99.90;;;;;;5048145;28;20458;-71
2022/09/23 10:31:34;;;;;;;8.88;4.85;;;17.70;99.90;;;;;;5038263;28;20183;-71
2022/09/23 10:34:27;;;;;;;8.45;4.30;;;17.70;99.90;;;;;;5033719;28;20476;-69
2022/09/23 10:37:12;;;;;;;9.93;5.00;;;17.80;99.90;;;;;;5030313;28;20117;-70
2022/09/23 10:48:36;;;;;;;8.18;4.35;;;18.00;99.90;;;;;;5030264;28;20028;-71
2022/09/23 10:51:19;;;;;;;13.73;4.88;;;18.10;99.90;;;;;;5032164;28;20028;-71
2022/09/23 10:53:55;;;;;;;9.90;4.13;;;18.20;99.90;;;;;;5027774;28;20036;-70
2022/09/23 10:56:39;;;;;;;10.18;4.22;;;18.20;99.90;;;;;;5031987;28;20017;-71
2022/09/23 10:59:42;;;;;;;10.43;4.40;;;18.30;99.90;;;;;;5029307;28;20043;-71
2022/09/23 11:02:30;;;;;;;7.72;3.65;;;18.30;99.90;;;;;;5029319;28;20021;-71
2022/09/23 11:05:21;;;;;;;4.75;3.33;;;18.30;99.90;;;;;;5028319;28;20033;-71
2022/09/23 11:08:10;;;;;;;7.47;3.38;;;18.50;99.90;;;;;;5030981;28;20018;-71
2022/09/23 11:11:18;;;;;;;8.45;3.60;;;18.60;99.90;;;;;;5031388;28;20030;-71
2022/09/23 11:14:16;;;;;;;8.50;3.53;;;18.50;99.90;;;;;;5028977;28;20111;-71
2022/09/23 11:16:44;;;;;;;10.18;3.10;;;18.60;99.90;;;;;;5034583;28;20139;-71
2022/09/23 11:19:21;;;;;;;7.30;3.30;;;18.80;99.90;;;;;;5044535;28;20104;-71
2022/09/23 11:22:07;;;;;;;5.95;2.60;;;19.00;99.90;;;;;;5044060;28;20021;-71
2022/09/23 11:24:59;;;;;;;5.88;3.10;;;19.20;99.90;;;;;;5045990;28;20104;-71
2022/09/23 11:28:02;;;;;;;5.75;2.88;;;19.30;99.90;;;;;;5039878;28;20025;-71
2022/09/23 11:31:20;;;;;;;7.10;2.75;;;19.50;99.90;;;;;;5047468;28;20107;-71
2022/09/23 11:34:00;;;;;;;4.57;2.10;;;19.80;99.90;;;;;;5053362;28;20622;-71
2022/09/23 11:36:32;;;;;;;6.55;2.78;;;20.10;99.90;;;;;;5032632;28;20073;-71
2022/09/23 11:39:01;;;;;;;3.70;2.38;;;20.10;99.90;;;;;;5037322;28;20060;-71
2022/09/23 11:41:31;;;;;;;6.30;2.67;;;20.10;99.90;;;;;;5041996;28;20109;-71
2022/09/23 11:44:14;;;;;;;2.67;2.35;;;20.00;99.90;;;;;;5029854;28;20112;-71
2022/09/23 11:47:01;;;;;;;4.35;2.38;;;20.10;99.90;;;;;;5047689;28;20030;-71
2022/09/23 11:49:31;;;;;;;4.63;2.00;;;19.90;99.90;;;;;;5040086;28;20024;-71
2022/09/23 11:52:24;;;;;;;5.65;2.50;;;20.00;99.90;;;;;;5037784;28;20248;-72
2022/09/23 11:54:53;;;;;;;;;;;19.80;99.90;;;;;;5021312;28;20078;-72
2022/09/23 11:57:38;;;;;;;3.58;2.10;;;19.80;99.90;;;;;;5042603;28;19905;-71
2022/09/23 12:00:12;;;;;;;4.75;2.58;;;19.70;99.90;;;;;;5036138;28;20472;-71
2022/09/23 12:02:47;;;;;;;5.68;2.20;;;19.70;99.90;;;;;;5036187;28;20178;-71
2022/09/23 12:05:20;;;;;;;4.60;2.72;;;19.70;99.90;;;;;;5043533;28;20065;-71
2022/09/23 12:08:02;;;;;;;3.00;2.35;;;19.70;99.90;;;;;;5032372;28;20021;-71
2022/09/23 12:10:52;;;;;;;5.50;2.07;;;19.70;99.90;;;;;;5046826;28;20033;-71
2022/09/23 12:13:26;;;;;;;3.30;1.92;;;19.70;99.90;;;;;;5040593;28;20091;-71
2022/09/23 12:16:13;;;;;;;5.90;2.28;;;19.80;99.90;;;;;;5048502;28;20035;-71
2022/09/23 12:19:04;;;;;;;9.77;2.40;;;19.70;99.90;;;;;;5038200;28;20056;-72
2022/09/23 12:21:44;;;;;;;6.72;2.53;;;19.80;99.90;;;;;;5044824;28;20033;-71
2022/09/23 12:24:21;;;;;;;7.95;2.17;;;19.80;99.90;;;;;;5049995;28;20032;-71
2022/09/23 12:26:58;;;;;;;6.88;2.30;;;19.80;99.90;;;;;;5020754;28;20021;-71
2022/09/23 12:29:28;;;;;;;6.05;3.00;;;19.70;99.90;;;;;;5039312;28;20053;-72
2022/09/23 12:31:54;;;;;;;7.65;2.92;;;19.60;99.90;;;;;;5036358;28;20069;-71
2022/09/23 12:34:26;;;;;;;4.32;2.63;;;19.60;99.90;;;;;;5047635;28;20025;-72
2022/09/23 12:36:52;;;;;;;4.53;2.30;;;19.70;99.90;;;;;;5036093;28;20520;-71
2022/09/23 12:39:20;;;;;;;5.28;2.67;;;19.70;99.90;;;;;;5036800;28;20014;-71
2022/09/23 12:41:49;;;;;;;4.38;2.38;;;19.70;99.90;;;;;;5035075;28;20079;-71
2022/09/23 12:44:35;;;;;;;4.40;2.20;;;19.80;99.90;;;;;;5038148;28;20120;-71
2022/09/23 12:47:26;;;;;;;9.32;2.30;;;19.80;99.90;;;;;;5027161;28;20051;-75
2022/09/23 12:49:56;;;;;;;5.43;2.20;;;19.80;99.90;;;;;;5040519;28;20033;-72
2022/09/23 12:52:28;;;;;;;22.58;4.25;;;19.80;99.90;;;;;;5037195;28;20037;-72
2022/09/23 12:55:17;;;;;;;6.38;2.80;;;19.70;99.90;;;;;;5037167;28;20477;-71
2022/09/23 12:57:43;;;;;;;3.80;2.78;;;19.70;99.90;;;;;;5042433;28;20030;-74
2022/09/23 13:00:25;;;;;;;6.72;3.05;;;19.60;99.90;;;;;;5048839;28;20025;-74
2022/09/23 13:08:31;;;;;;;6.53;3.10;;;19.70;99.90;;;;;;5037165;28;20456;-72
2022/09/23 13:10:59;;;;;;;7.32;2.70;;;19.60;99.90;;;;;;5048660;28;20056;-72
2022/09/23 13:13:38;;;;;;;3.92;3.08;;;19.60;99.90;;;;;;5030550;28;20301;-71
2022/09/23 13:16:10;;;;;;;10.07;3.10;;;19.50;99.90;;;;;;5032646;28;20029;-72
2022/09/23 13:18:54;;;;;;;5.05;3.42;;;19.50;99.90;;;;;;5050068;28;20025;-69
2022/09/23 13:21:41;;;;;;;6.15;3.17;;;19.60;99.90;;;;;;5042343;28;20488;-69
2022/09/23 13:24:15;;;;;;;7.25;3.35;;;19.70;99.90;;;;;;5037614;28;20034;-70
2022/09/23 13:26:48;;;;;;;21.58;4.40;;;19.70;99.90;;;;;;5033415;28;20031;-71